createdAt,value
2018-08-11T00:02:33.689Z,17.90
2018-08-11T00:05:02.263Z,17.90
2018-08-11T00:07:30.809Z,17.80
2018-08-11T00:10:00.647Z,17.80
2018-08-11T00:12:29.127Z,17.80
2018-08-11T00:14:59.069Z,17.80
2018-08-11T00:17:27.732Z,17.70
2018-08-11T00:19:56.188Z,17.60
2018-08-11T00:22:24.940Z,17.70
2018-08-11T00:24:57.390Z,17.70
2018-08-11T00:27:30.422Z,17.70
2018-08-11T00:29:59.858Z,17.80
2018-08-11T00:32:28.860Z,17.70
2018-08-11T00:34:58.246Z,17.80
2018-08-11T00:37:27.236Z,17.80
2018-08-11T00:39:56.242Z,17.80
2018-08-11T00:42:25.017Z,17.80
2018-08-11T00:44:53.825Z,17.80
2018-08-11T00:47:22.533Z,17.80
2018-08-11T00:49:50.972Z,17.90
2018-08-11T00:52:19.473Z,17.80
2018-08-11T00:54:48.036Z,17.80
2018-08-11T00:57:16.560Z,17.90
2018-08-11T00:59:45.009Z,18.00
2018-08-11T01:02:13.950Z,18.00
2018-08-11T01:04:42.385Z,17.90
2018-08-11T01:07:10.838Z,18.00
2018-08-11T01:09:39.308Z,18.00
2018-08-11T01:12:07.755Z,18.00
2018-08-11T01:14:36.270Z,17.90
2018-08-11T01:17:04.754Z,17.90
2018-08-11T01:19:33.326Z,17.80
2018-08-11T01:22:01.733Z,17.90
2018-08-11T01:24:30.155Z,17.90
2018-08-11T01:26:58.602Z,18.00
2018-08-11T01:29:27.144Z,18.10
2018-08-11T01:31:55.595Z,18.10
2018-08-11T01:34:24.092Z,18.20
2018-08-11T01:36:52.625Z,18.20
2018-08-11T01:39:21.189Z,18.20
2018-08-11T01:41:49.609Z,18.20
2018-08-11T01:44:18.187Z,18.20
2018-08-11T01:46:46.648Z,18.10
2018-08-11T01:49:15.844Z,18.10
2018-08-11T01:51:44.390Z,18.20
2018-08-11T01:54:13.356Z,18.10
2018-08-11T01:56:42.275Z,18.20
2018-08-11T01:59:10.965Z,18.20
2018-08-11T02:01:39.421Z,18.20
2018-08-11T02:04:08.120Z,18.00
2018-08-11T02:06:36.848Z,17.80
2018-08-11T02:09:07.882Z,17.40
2018-08-11T02:11:36.492Z,17.10
2018-08-11T02:14:05.482Z,16.90
2018-08-11T02:16:35.977Z,16.80
2018-08-11T02:19:04.636Z,16.80
2018-08-11T02:21:33.142Z,16.50
2018-08-11T02:24:01.608Z,16.50
2018-08-11T02:26:30.030Z,16.40
2018-08-11T02:28:58.499Z,16.30
2018-08-11T02:31:27.012Z,16.30
2018-08-11T02:33:55.747Z,16.40
2018-08-11T02:36:24.187Z,16.30
2018-08-11T02:38:52.648Z,16.30
2018-08-11T02:41:21.123Z,16.30
2018-08-11T02:43:49.581Z,16.30
2018-08-11T02:46:18.584Z,16.40
2018-08-11T02:48:47.044Z,16.40
2018-08-11T02:51:15.520Z,16.40
2018-08-11T02:53:43.970Z,16.30
2018-08-11T02:56:12.453Z,16.30
2018-08-11T02:58:41.341Z,16.10
2018-08-11T03:01:09.941Z,16.00
2018-08-11T03:03:38.361Z,15.90
2018-08-11T03:06:07.029Z,15.90
2018-08-11T03:08:35.507Z,15.90
2018-08-11T03:11:04.020Z,15.90
2018-08-11T03:13:32.579Z,15.90
2018-08-11T03:16:01.063Z,16.00
2018-08-11T03:18:29.635Z,15.90
2018-08-11T03:20:58.102Z,15.90
2018-08-11T03:23:26.595Z,15.80
2018-08-11T03:25:55.067Z,15.80
2018-08-11T03:28:23.848Z,15.70
2018-08-11T03:30:52.245Z,15.70
2018-08-11T03:33:21.600Z,15.60
2018-08-11T03:35:50.843Z,15.60
2018-08-11T03:38:19.275Z,15.60
2018-08-11T03:40:47.738Z,15.60
2018-08-11T03:43:16.156Z,15.60
2018-08-11T03:45:44.588Z,15.60
2018-08-11T03:48:13.045Z,15.60
2018-08-11T03:50:41.590Z,15.50
2018-08-11T03:53:10.043Z,15.40
2018-08-11T03:55:38.620Z,15.50
2018-08-11T03:58:07.064Z,15.40
2018-08-11T04:00:35.564Z,15.40
2018-08-11T04:03:04.412Z,15.40
2018-08-11T04:05:32.893Z,15.30
2018-08-11T04:08:01.471Z,15.30
2018-08-11T04:10:29.979Z,15.30
2018-08-11T04:12:58.451Z,15.30
2018-08-11T04:15:27.324Z,15.30
2018-08-11T04:17:55.754Z,15.40
2018-08-11T04:20:24.259Z,15.30
2018-08-11T04:22:52.736Z,15.30
2018-08-11T04:25:21.229Z,15.30
2018-08-11T04:27:49.697Z,15.30
2018-08-11T04:30:18.145Z,15.30
2018-08-11T04:32:46.584Z,15.20
2018-08-11T04:35:15.052Z,15.10
2018-08-11T04:37:43.492Z,15.10
2018-08-11T04:40:11.948Z,15.10
2018-08-11T04:42:40.427Z,15.10
2018-08-11T04:45:09.309Z,15.20
2018-08-11T04:47:37.766Z,15.30
2018-08-11T04:50:06.501Z,15.30
2018-08-11T04:52:35.146Z,15.30
2018-08-11T04:55:03.967Z,15.40
2018-08-11T04:57:32.397Z,15.40
2018-08-11T05:00:00.898Z,15.50
2018-08-11T05:02:29.551Z,15.60
2018-08-11T05:04:58.013Z,15.70
2018-08-11T05:07:26.469Z,15.70
2018-08-11T05:09:55.287Z,15.70
2018-08-11T05:12:23.921Z,15.70
2018-08-11T05:14:52.520Z,15.80
2018-08-11T05:17:21.089Z,16.20
2018-08-11T05:19:49.679Z,17.00
2018-08-11T05:22:18.087Z,17.20
2018-08-11T05:24:46.590Z,17.40
2018-08-11T05:27:15.129Z,17.20
2018-08-11T05:29:43.552Z,17.70
2018-08-11T05:32:12.022Z,18.70
2018-08-11T05:34:40.479Z,19.20
2018-08-11T05:37:08.947Z,19.90
2018-08-11T05:39:37.406Z,20.40
2018-08-11T05:42:05.849Z,20.70
2018-08-11T05:44:34.264Z,20.50
2018-08-11T05:47:02.783Z,20.90
2018-08-11T05:49:31.254Z,20.50
2018-08-11T05:51:59.701Z,20.80
2018-08-11T05:54:28.163Z,21.00
2018-08-11T05:56:56.625Z,21.20
2018-08-11T05:59:25.073Z,20.40
2018-08-11T06:01:53.560Z,20.60
2018-08-11T06:04:22.009Z,21.20
2018-08-11T06:06:50.554Z,22.00
2018-08-11T06:09:18.998Z,21.80
2018-08-11T06:11:47.669Z,22.10
2018-08-11T06:14:16.093Z,22.30
2018-08-11T06:16:45.301Z,23.30
2018-08-11T06:19:13.749Z,23.40
2018-08-11T06:21:42.277Z,23.20
2018-08-11T06:24:10.762Z,22.70
2018-08-11T06:26:39.234Z,22.10
2018-08-11T06:29:08.176Z,21.20
2018-08-11T06:31:36.694Z,20.20
2018-08-11T06:34:05.076Z,19.50
2018-08-11T06:36:33.661Z,19.30
2018-08-11T06:39:02.195Z,19.10
2018-08-11T06:41:30.721Z,18.90
2018-08-11T06:43:59.472Z,18.90
2018-08-11T06:46:27.953Z,18.90
2018-08-11T06:48:56.399Z,19.10
2018-08-11T06:51:24.932Z,19.40
2018-08-11T06:53:53.367Z,19.50
2018-08-11T06:56:21.935Z,19.30
2018-08-11T06:58:50.455Z,19.20
2018-08-11T07:01:18.976Z,19.10
2018-08-11T07:03:47.389Z,19.10
2018-08-11T07:06:15.868Z,19.50
2018-08-11T07:08:44.366Z,19.90
2018-08-11T07:11:13.799Z,19.70
2018-08-11T07:13:42.224Z,19.20
2018-08-11T07:16:10.669Z,18.70
2018-08-11T07:18:39.124Z,18.20
2018-08-11T07:21:07.752Z,17.90
2018-08-11T07:23:36.451Z,19.30
2018-08-11T07:26:05.131Z,21.20
2018-08-11T07:28:33.643Z,22.30
2018-08-11T07:31:02.125Z,23.10
2018-08-11T07:33:31.015Z,23.70
2018-08-11T07:35:59.533Z,24.30
2018-08-11T07:38:28.015Z,24.70
2018-08-11T07:40:56.504Z,24.30
2018-08-11T07:43:25.131Z,24.50
2018-08-11T07:45:53.583Z,23.90
2018-08-11T07:48:22.127Z,24.70
2018-08-11T07:50:50.989Z,23.30
2018-08-11T07:53:19.447Z,21.90
2018-08-11T07:55:48.197Z,21.10
2018-08-11T07:58:16.714Z,21.90
2018-08-11T08:00:45.305Z,23.30
2018-08-11T08:03:13.766Z,23.90
2018-08-11T08:05:42.452Z,24.10
2018-08-11T08:08:19.919Z,24.70
2018-08-11T08:10:49.392Z,24.80
2018-08-11T08:13:21.919Z,23.30
2018-08-11T08:15:51.502Z,23.10
2018-08-11T08:18:21.497Z,22.80
2018-08-11T08:20:51.322Z,23.40
2018-08-11T08:23:20.384Z,23.70
2018-08-11T08:25:49.921Z,23.50
2018-08-11T08:28:18.505Z,22.80
2018-08-11T08:30:46.956Z,22.10
2018-08-11T08:33:15.424Z,22.10
2018-08-11T08:35:43.908Z,21.30
2018-08-11T08:38:12.487Z,21.90
2018-08-11T08:40:40.971Z,22.20
2018-08-11T08:43:09.599Z,21.80
2018-08-11T08:45:38.150Z,21.00
2018-08-11T08:48:07.411Z,20.50
2018-08-11T08:50:35.854Z,21.30
2018-08-11T08:53:04.360Z,22.50
2018-08-11T08:55:33.016Z,23.70
2018-08-11T08:58:01.648Z,24.80
2018-08-11T09:00:30.122Z,25.30
2018-08-11T09:02:58.629Z,25.20
2018-08-11T09:05:27.131Z,24.40
2018-08-11T09:07:55.626Z,23.00
2018-08-11T09:10:24.140Z,23.10
2018-08-11T09:12:52.614Z,23.90
2018-08-11T09:15:22.179Z,24.00
2018-08-11T09:17:50.705Z,24.50
2018-08-11T09:20:19.223Z,24.20
2018-08-11T09:22:47.688Z,24.30
2018-08-11T09:25:16.172Z,24.50
2018-08-11T09:27:44.785Z,25.30
2018-08-11T09:30:13.290Z,25.40
2018-08-11T09:32:41.741Z,25.40
2018-08-11T09:35:10.195Z,25.90
2018-08-11T09:37:38.648Z,25.30
2018-08-11T09:40:07.356Z,24.70
2018-08-11T09:42:35.974Z,24.10
2018-08-11T09:45:04.625Z,23.20
2018-08-11T09:47:33.099Z,22.70
2018-08-11T09:50:01.541Z,22.10
2018-08-11T09:52:30.033Z,21.30
2018-08-11T09:54:58.542Z,21.00
2018-08-11T09:57:26.994Z,21.20
2018-08-11T09:59:55.511Z,22.30
2018-08-11T10:02:23.950Z,23.10
2018-08-11T10:04:52.416Z,24.00
2018-08-11T10:07:20.864Z,25.00
2018-08-11T10:09:49.594Z,25.50
2018-08-11T10:12:18.224Z,26.40
2018-08-11T10:14:47.426Z,25.90
2018-08-11T10:17:15.868Z,25.80
2018-08-11T10:19:44.455Z,25.20
2018-08-11T10:22:13.470Z,24.20
2018-08-11T10:24:41.929Z,23.00
2018-08-11T10:27:11.380Z,23.20
2018-08-11T10:29:39.842Z,24.50
2018-08-11T10:32:08.318Z,25.10
2018-08-11T10:34:36.840Z,25.80
2018-08-11T10:37:05.386Z,26.10
2018-08-11T10:39:33.987Z,26.00
2018-08-11T10:42:02.579Z,25.90
2018-08-11T10:44:31.096Z,25.90
2018-08-11T10:46:59.569Z,25.60
2018-08-11T10:49:32.674Z,25.30
2018-08-11T10:52:08.368Z,24.90
2018-08-11T10:54:40.383Z,24.20
2018-08-11T10:57:14.203Z,23.20
2018-08-11T10:59:47.493Z,22.70
2018-08-11T11:02:20.864Z,22.70
2018-08-11T11:04:54.794Z,23.80
2018-08-11T11:07:30.909Z,23.50
2018-08-11T11:10:04.724Z,23.10
2018-08-11T11:12:37.808Z,23.70
2018-08-11T11:15:11.568Z,24.20
2018-08-11T11:17:45.108Z,24.30
2018-08-11T11:22:54.673Z,24.30
2018-08-11T11:25:26.952Z,25.00
2018-08-11T11:27:57.025Z,24.80
2018-08-11T11:30:27.286Z,24.80
2018-08-11T11:32:56.896Z,24.60
2018-08-11T11:35:25.820Z,24.60
2018-08-11T11:37:54.408Z,24.70
2018-08-11T11:40:22.899Z,24.60
2018-08-11T11:42:51.390Z,24.30
2018-08-11T11:45:19.832Z,24.20
2018-08-11T11:47:48.304Z,23.90
2018-08-11T11:50:16.830Z,23.50
2018-08-11T11:52:45.450Z,24.00
2018-08-11T11:55:13.909Z,24.20
2018-08-11T11:57:42.410Z,24.50
2018-08-11T12:00:11.049Z,24.50
2018-08-11T12:02:39.662Z,24.70
2018-08-11T12:05:08.357Z,25.00
2018-08-11T12:07:37.037Z,24.50
2018-08-11T12:10:05.527Z,24.40
2018-08-11T12:12:34.082Z,24.20
2018-08-11T12:15:03.348Z,24.10
2018-08-11T12:17:31.945Z,23.70
2018-08-11T12:20:00.589Z,23.40
2018-08-11T12:22:29.015Z,23.30
2018-08-11T12:24:57.458Z,23.20
2018-08-11T12:27:25.920Z,22.90
2018-08-11T12:29:54.367Z,22.80
2018-08-11T12:32:23.636Z,23.10
2018-08-11T12:34:52.117Z,23.20
2018-08-11T12:37:20.575Z,22.90
2018-08-11T12:39:49.035Z,22.70
2018-08-11T12:42:17.556Z,22.70
2018-08-11T12:44:46.040Z,23.00
2018-08-11T12:47:14.528Z,23.10
2018-08-11T12:49:42.961Z,22.90
2018-08-11T12:52:11.411Z,22.90
2018-08-11T12:54:40.394Z,22.70
2018-08-11T12:57:08.981Z,22.90
2018-08-11T12:59:37.445Z,23.10
2018-08-11T13:02:05.921Z,23.00
2018-08-11T13:04:34.408Z,23.20
2018-08-11T13:07:02.894Z,23.30
2018-08-11T13:09:31.371Z,23.20
2018-08-11T13:11:59.952Z,23.20
2018-08-11T13:14:28.514Z,23.20
2018-08-11T13:16:56.951Z,23.10
2018-08-11T13:19:25.601Z,22.90
2018-08-11T13:21:54.149Z,22.90
2018-08-11T13:24:22.718Z,23.30
2018-08-11T13:26:51.232Z,23.50
2018-08-11T13:29:19.891Z,23.60
2018-08-11T13:31:48.352Z,23.30
2018-08-11T13:34:16.791Z,23.20
2018-08-11T13:36:45.252Z,23.30
2018-08-11T13:39:13.748Z,23.40
2018-08-11T13:41:45.838Z,23.50
2018-08-11T13:44:15.200Z,23.50
2018-08-11T13:46:43.664Z,23.10
2018-08-11T13:49:12.098Z,23.50
2018-08-11T13:51:40.585Z,23.40
2018-08-11T13:54:09.502Z,23.20
2018-08-11T13:56:38.603Z,23.40
2018-08-11T13:59:07.277Z,23.50
2018-08-11T14:01:36.144Z,23.50
2018-08-11T14:04:04.874Z,23.40
2018-08-11T14:06:33.417Z,23.10
2018-08-11T14:09:01.889Z,23.40
2018-08-11T14:11:30.392Z,23.60
2018-08-11T14:13:58.851Z,23.40
2018-08-11T14:16:27.355Z,23.40
2018-08-11T14:18:55.933Z,23.30
2018-08-11T14:21:24.574Z,23.60
2018-08-11T14:23:53.017Z,23.50
2018-08-11T14:26:21.764Z,23.60
2018-08-11T14:28:50.232Z,23.70
2018-08-11T14:31:18.735Z,23.60
2018-08-11T14:33:47.998Z,23.60
2018-08-11T14:36:21.912Z,23.50
2018-08-11T14:38:51.351Z,23.60
2018-08-11T14:41:19.995Z,23.60
2018-08-11T14:43:48.469Z,23.50
2018-08-11T14:46:18.101Z,23.40
2018-08-11T14:48:46.756Z,23.50
2018-08-11T14:51:15.228Z,23.70
2018-08-11T14:53:43.721Z,23.70
2018-08-11T14:56:12.196Z,23.70
2018-08-11T14:58:41.085Z,23.60
2018-08-11T15:01:10.036Z,23.60
2018-08-11T15:03:38.559Z,23.50
2018-08-11T15:06:06.985Z,23.40
2018-08-11T15:08:35.451Z,23.40
2018-08-11T15:11:04.205Z,23.50
2018-08-11T15:13:32.654Z,23.60
2018-08-11T15:16:01.263Z,23.50
2018-08-11T15:18:29.795Z,23.50
2018-08-11T15:20:58.390Z,23.40
2018-08-11T15:23:26.867Z,23.40
2018-08-11T15:25:55.381Z,23.40
2018-08-11T15:28:23.844Z,23.30
2018-08-11T15:30:52.366Z,23.20
2018-08-11T15:33:20.830Z,23.10
2018-08-11T15:35:49.810Z,23.10
2018-08-11T15:38:18.379Z,23.10
2018-08-11T15:40:46.821Z,23.10
2018-08-11T15:43:15.371Z,23.20
2018-08-11T15:45:43.865Z,23.30
2018-08-11T15:48:12.339Z,23.00
2018-08-11T15:50:40.800Z,23.10
2018-08-11T15:53:09.420Z,23.10
2018-08-11T15:55:37.875Z,23.20
2018-08-11T15:58:06.723Z,23.20
2018-08-11T16:00:35.160Z,23.20
2018-08-11T16:03:03.739Z,23.20
2018-08-11T16:05:33.171Z,23.00
2018-08-11T16:08:01.740Z,23.00
2018-08-11T16:10:30.594Z,22.90
2018-08-11T16:12:59.120Z,23.00
2018-08-11T16:15:27.532Z,23.00
2018-08-11T16:17:57.156Z,22.90
2018-08-11T16:20:25.701Z,22.80
2018-08-11T16:22:54.195Z,22.60
2018-08-11T16:25:23.003Z,22.70
2018-08-11T16:27:51.493Z,22.80
2018-08-11T16:30:19.972Z,22.80
2018-08-11T16:32:48.532Z,22.80
2018-08-11T16:35:17.041Z,22.90
2018-08-11T16:37:45.479Z,22.80
2018-08-11T16:40:13.949Z,22.70
2018-08-11T16:42:42.388Z,22.70
2018-08-11T16:45:11.040Z,22.70
2018-08-11T16:47:39.984Z,22.70
2018-08-11T16:50:08.600Z,22.60
2018-08-11T16:52:37.096Z,22.60
2018-08-11T16:55:06.440Z,22.50
2018-08-11T16:57:35.001Z,22.50
2018-08-11T17:00:03.501Z,22.50
2018-08-11T17:02:32.297Z,22.40
2018-08-11T17:05:00.709Z,22.40
2018-08-11T17:07:29.189Z,22.40
2018-08-11T17:09:57.708Z,22.40
2018-08-11T17:12:26.198Z,22.40
2018-08-11T17:14:54.745Z,22.50
2018-08-11T17:17:23.193Z,22.50
2018-08-11T17:19:51.676Z,22.40
2018-08-11T17:22:20.097Z,22.50
2018-08-11T17:24:48.584Z,22.50
2018-08-11T17:27:17.099Z,22.50
2018-08-11T17:29:45.567Z,22.40
2018-08-11T17:32:14.020Z,22.40
2018-08-11T17:34:42.525Z,22.40
2018-08-11T17:37:11.000Z,22.30
2018-08-11T17:39:39.840Z,22.30
2018-08-11T17:42:09.000Z,22.10
2018-08-11T17:44:37.592Z,22.10
2018-08-11T17:47:06.180Z,22.00
2018-08-11T17:49:34.648Z,21.90
2018-08-11T17:52:03.302Z,21.90
2018-08-11T17:54:31.927Z,21.90
2018-08-11T17:57:00.709Z,21.80
2018-08-11T17:59:29.541Z,21.80
2018-08-11T18:01:58.144Z,21.80
2018-08-11T18:04:26.648Z,21.70
2018-08-11T18:06:55.459Z,21.70
2018-08-11T18:09:24.157Z,21.60
2018-08-11T18:11:52.685Z,21.60
2018-08-11T18:14:21.977Z,21.60
2018-08-11T18:16:50.579Z,21.60
2018-08-11T18:19:19.074Z,21.50
2018-08-11T18:21:47.558Z,21.40
2018-08-11T18:24:16.099Z,21.30
2018-08-11T18:26:44.620Z,21.30
2018-08-11T18:29:14.297Z,21.20
2018-08-11T18:31:42.719Z,21.20
2018-08-11T18:34:11.157Z,21.20
2018-08-11T18:36:40.008Z,21.10
2018-08-11T18:39:11.157Z,21.10
2018-08-11T18:41:39.643Z,21.00
2018-08-11T18:44:08.083Z,21.00
2018-08-11T18:46:36.835Z,20.90
2018-08-11T18:49:05.748Z,20.80
2018-08-11T18:51:35.365Z,20.70
2018-08-11T18:54:04.026Z,20.60
2018-08-11T18:56:32.593Z,20.50
2018-08-11T18:59:01.083Z,20.50
2018-08-11T19:01:29.725Z,20.40
2018-08-11T19:03:58.186Z,20.40
2018-08-11T19:06:26.828Z,20.40
2018-08-11T19:08:57.208Z,20.30
2018-08-11T19:11:25.952Z,20.30
2018-08-11T19:13:54.783Z,20.10
2018-08-11T19:16:23.588Z,20.10
2018-08-11T19:18:52.405Z,20.00
2018-08-11T19:21:20.920Z,19.90
2018-08-11T19:23:49.567Z,19.90
2018-08-11T19:26:18.140Z,19.90
2018-08-11T19:28:46.656Z,20.00
2018-08-11T19:31:15.214Z,20.00
2018-08-11T19:33:44.095Z,19.80
2018-08-11T19:36:12.645Z,19.70
2018-08-11T19:38:41.189Z,19.60
2018-08-11T19:41:09.758Z,19.50
2018-08-11T19:43:38.396Z,19.50
2018-08-11T19:46:07.229Z,19.50
2018-08-11T19:48:35.844Z,19.50
2018-08-11T19:51:04.577Z,19.50
2018-08-11T19:53:33.123Z,19.40
2018-08-11T19:56:01.779Z,19.30
2018-08-11T19:58:30.329Z,19.20
2018-08-11T20:01:00.068Z,19.10
2018-08-11T20:03:28.844Z,19.00
2018-08-11T20:05:57.324Z,18.90
2018-08-11T20:08:25.897Z,18.90
2018-08-11T20:10:54.857Z,18.90
2018-08-11T20:13:23.590Z,18.80
2018-08-11T20:15:53.133Z,18.70
2018-08-11T20:18:21.613Z,18.70
2018-08-11T20:20:50.132Z,18.70
2018-08-11T20:23:19.150Z,18.70
2018-08-11T20:25:48.807Z,18.60
2018-08-11T20:28:18.056Z,18.60
2018-08-11T20:30:46.620Z,18.40
2018-08-11T20:33:15.130Z,18.30
2018-08-11T20:35:43.962Z,18.30
2018-08-11T20:38:12.737Z,18.30
2018-08-11T20:40:41.293Z,18.20
2018-08-11T20:43:09.822Z,18.20
2018-08-11T20:45:38.311Z,18.20
2018-08-11T20:48:06.964Z,18.20
2018-08-11T20:50:35.474Z,18.10
2018-08-11T20:53:03.969Z,18.00
2018-08-11T20:55:32.457Z,17.80
2018-08-11T20:58:01.024Z,17.80
2018-08-11T21:00:29.523Z,17.80
2018-08-11T21:02:58.041Z,17.70
2018-08-11T21:05:26.533Z,17.70
2018-08-11T21:07:55.196Z,17.60
2018-08-11T21:10:23.672Z,17.60
2018-08-11T21:12:52.273Z,17.60
2018-08-11T21:15:20.747Z,17.50
2018-08-11T21:17:49.253Z,17.60
2018-08-11T21:20:17.757Z,17.60
2018-08-11T21:22:46.180Z,17.60
2018-08-11T21:25:14.654Z,17.40
2018-08-11T21:27:43.274Z,17.40
2018-08-11T21:30:14.204Z,17.30
2018-08-11T21:32:42.893Z,17.20
2018-08-11T21:35:11.660Z,17.20
2018-08-11T21:37:40.189Z,17.30
2018-08-11T21:40:12.099Z,17.20
2018-08-11T21:42:40.914Z,17.10
2018-08-11T21:45:10.232Z,17.10
2018-08-11T21:47:39.537Z,17.10
2018-08-11T21:50:08.676Z,17.00
2018-08-11T21:52:38.611Z,17.00
2018-08-11T21:55:07.888Z,17.00
2018-08-11T21:57:37.108Z,16.90
2018-08-11T22:00:38.245Z,16.80
2018-08-11T22:03:08.368Z,16.80
2018-08-11T22:05:36.820Z,16.70
2018-08-11T22:08:05.330Z,16.80
2018-08-11T22:10:33.863Z,16.80
2018-08-11T22:13:02.705Z,16.70
2018-08-11T22:15:31.188Z,16.70
2018-08-11T22:22:59.259Z,16.70
2018-08-11T22:25:27.743Z,16.60
2018-08-11T22:27:56.211Z,16.50
2018-08-11T22:30:24.753Z,16.40
2018-08-11T22:32:53.323Z,16.30
2018-08-11T22:35:21.835Z,16.40
2018-08-11T22:37:50.290Z,16.40
2018-08-11T22:40:18.799Z,16.30
2018-08-11T22:42:47.264Z,16.30
2018-08-11T22:45:15.782Z,16.20
2018-08-11T22:47:44.322Z,16.20
2018-08-11T22:50:14.092Z,16.20
2018-08-11T22:52:42.599Z,16.20
2018-08-11T22:55:11.107Z,16.30
2018-08-11T22:57:39.676Z,16.30
2018-08-11T23:00:13.201Z,16.30
2018-08-11T23:02:41.811Z,16.30
2018-08-11T23:05:11.001Z,16.30
2018-08-11T23:07:39.989Z,16.30
2018-08-11T23:10:10.524Z,16.30
2018-08-11T23:12:39.247Z,16.30
2018-08-11T23:15:11.357Z,16.20
2018-08-11T23:17:40.262Z,16.20
2018-08-11T23:20:09.377Z,16.20
2018-08-11T23:22:38.015Z,16.20
2018-08-11T23:25:07.404Z,16.20
2018-08-11T23:27:36.453Z,16.20
2018-08-11T23:30:06.528Z,16.00
2018-08-11T23:32:35.071Z,16.10
2018-08-11T23:35:03.603Z,16.00
2018-08-11T23:37:32.259Z,15.90
2018-08-11T23:40:00.682Z,15.90
2018-08-11T23:42:29.181Z,15.90
2018-08-11T23:44:57.740Z,15.80
2018-08-11T23:47:26.223Z,15.80
2018-08-11T23:49:55.230Z,15.90
2018-08-11T23:52:23.657Z,15.80
2018-08-11T23:54:52.155Z,15.80
2018-08-11T23:57:20.724Z,15.70
2018-08-11T23:59:49.151Z,15.80
